createdAt,value
2018-10-21T00:00:36.800Z,4.0
2018-10-21T00:17:22.187Z,4.0
2018-10-21T00:34:07.505Z,4.0
2018-10-21T00:50:52.743Z,4.0
2018-10-21T01:07:37.841Z,4.0
2018-10-21T01:24:22.997Z,3.9
2018-10-21T01:41:08.142Z,3.9
2018-10-21T01:57:53.276Z,3.9
2018-10-21T02:14:38.030Z,3.9
2018-10-21T02:31:22.896Z,3.9
2018-10-21T02:48:07.749Z,3.9
2018-10-21T03:04:52.548Z,3.9
2018-10-21T03:21:37.427Z,3.9
2018-10-21T03:38:22.002Z,3.9
2018-10-21T03:55:06.667Z,3.9
2018-10-21T04:11:51.352Z,3.8
2018-10-21T04:28:36.061Z,3.8
2018-10-21T04:45:20.691Z,3.8
2018-10-21T05:02:05.344Z,3.8
2018-10-21T05:18:49.842Z,3.8
2018-10-21T05:35:34.517Z,3.8
2018-10-21T05:52:19.193Z,3.8
2018-10-21T06:09:03.951Z,3.8
2018-10-21T06:25:48.445Z,3.8
2018-10-21T06:42:32.921Z,3.8
2018-10-21T06:59:17.422Z,3.8
2018-10-21T07:16:02.062Z,3.9
2018-10-21T07:32:48.161Z,4.0
2018-10-21T07:49:31.152Z,4.1
2018-10-21T08:06:15.771Z,4.2
2018-10-21T08:23:00.769Z,4.3
2018-10-21T08:39:45.982Z,4.4
2018-10-21T08:56:31.183Z,4.5
2018-10-21T09:13:16.568Z,4.5
2018-10-21T09:30:01.974Z,4.5
2018-10-21T09:46:47.899Z,4.5
2018-10-21T10:03:33.899Z,4.5
2018-10-21T10:20:20.440Z,4.5
2018-10-21T10:37:06.804Z,4.6
2018-10-21T10:53:53.584Z,4.6
2018-10-21T11:10:41.232Z,4.6
2018-10-21T11:27:27.856Z,4.6
2018-10-21T11:44:15.761Z,4.6
2018-10-21T12:01:02.881Z,4.6
2018-10-21T12:17:50.292Z,4.6
2018-10-21T12:34:38.030Z,4.6
2018-10-21T12:51:25.512Z,4.6
2018-10-21T13:08:13.229Z,4.6
2018-10-21T13:25:00.936Z,4.6
2018-10-21T13:41:48.477Z,4.6
2018-10-21T13:58:36.064Z,4.6
2018-10-21T14:15:23.580Z,4.5
2018-10-21T14:32:10.960Z,4.5
2018-10-21T14:48:58.366Z,4.5
2018-10-21T15:05:45.888Z,4.5
2018-10-21T15:22:33.037Z,4.5
2018-10-21T15:39:20.438Z,4.5
2018-10-21T15:56:07.500Z,4.4
2018-10-21T16:12:54.522Z,4.4
2018-10-21T16:29:41.785Z,4.4
2018-10-21T16:46:29.341Z,4.4
2018-10-21T17:03:16.122Z,4.3
2018-10-21T17:20:03.010Z,4.3
2018-10-21T17:36:50.283Z,4.3
2018-10-21T17:53:37.373Z,4.3
2018-10-21T18:10:24.603Z,4.3
2018-10-21T18:27:11.031Z,4.2
2018-10-21T18:43:57.450Z,4.2
2018-10-21T19:00:43.642Z,4.2
2018-10-21T19:17:29.913Z,4.2
2018-10-21T19:34:16.063Z,4.2
2018-10-21T19:51:02.310Z,4.2
2018-10-21T20:07:48.518Z,4.2
2018-10-21T20:24:34.772Z,4.2
2018-10-21T20:41:21.127Z,4.2
2018-10-21T20:58:07.093Z,4.1
2018-10-21T21:14:53.340Z,4.1
2018-10-21T21:31:39.621Z,4.1
2018-10-21T21:48:25.339Z,4.1
2018-10-21T22:05:11.328Z,4.1
2018-10-21T22:21:57.184Z,4.1
2018-10-21T22:38:42.980Z,4.1
2018-10-21T22:55:28.853Z,4.1
2018-10-21T23:12:14.801Z,4.1
2018-10-21T23:29:00.322Z,4.1
2018-10-21T23:45:45.957Z,4.0
